createdAt,value
2022-12-01T00:01:57.033Z,9.48
2022-12-01T00:04:23.446Z,8.76
2022-12-01T00:06:49.784Z,8.97
2022-12-01T00:09:19.709Z,9.02
2022-12-01T00:11:46.714Z,9.30
2022-12-01T00:14:13.089Z,8.92
2022-12-01T00:16:39.547Z,9.00
2022-12-01T00:19:05.908Z,8.86
2022-12-01T00:21:32.279Z,9.01
2022-12-01T00:23:58.626Z,9.20
2022-12-01T00:26:24.949Z,9.24
2022-12-01T00:28:51.278Z,9.16
2022-12-01T00:31:17.702Z,8.71
2022-12-01T00:33:44.141Z,8.83
2022-12-01T00:36:10.530Z,9.00
2022-12-01T00:38:36.986Z,8.79
2022-12-01T00:41:03.411Z,8.96
2022-12-01T00:43:29.759Z,8.89
2022-12-01T00:45:56.142Z,8.88
2022-12-01T00:48:22.542Z,8.85
2022-12-01T00:50:48.915Z,8.80
2022-12-01T00:53:15.266Z,8.61
2022-12-01T00:55:41.601Z,8.88
2022-12-01T00:58:07.941Z,9.05
2022-12-01T01:00:34.333Z,9.13
2022-12-01T01:03:00.670Z,8.87
2022-12-01T01:05:27.042Z,8.20
2022-12-01T01:07:53.555Z,8.65
2022-12-01T01:10:19.996Z,8.68
2022-12-01T01:12:46.405Z,8.80
2022-12-01T01:15:12.763Z,8.82
2022-12-01T01:17:39.151Z,8.77
2022-12-01T01:20:05.547Z,8.97
2022-12-01T01:22:31.888Z,8.96
2022-12-01T01:24:58.273Z,8.93
2022-12-01T01:27:24.668Z,8.81
2022-12-01T01:29:51.150Z,8.94
2022-12-01T01:32:17.506Z,9.00
2022-12-01T01:34:43.846Z,8.64
2022-12-01T01:37:10.174Z,8.66
2022-12-01T01:39:36.504Z,8.69
2022-12-01T01:42:02.894Z,8.44
2022-12-01T01:44:29.242Z,8.68
2022-12-01T01:46:55.573Z,8.32
2022-12-01T01:49:21.960Z,8.60
2022-12-01T01:51:48.316Z,8.53
2022-12-01T01:54:14.649Z,8.58
2022-12-01T01:56:41.007Z,9.04
2022-12-01T01:59:07.356Z,8.81
2022-12-01T02:01:33.804Z,8.49
2022-12-01T02:04:00.232Z,8.86
2022-12-01T02:06:26.599Z,8.60
2022-12-01T02:08:52.944Z,8.93
2022-12-01T02:11:19.317Z,8.84
2022-12-01T02:13:45.695Z,8.77
2022-12-01T02:16:12.116Z,8.42
2022-12-01T02:18:38.502Z,8.45
2022-12-01T02:21:04.897Z,8.35
2022-12-01T02:23:31.244Z,8.59
2022-12-01T02:25:57.578Z,8.17
2022-12-01T02:28:23.966Z,8.13
2022-12-01T02:30:50.396Z,8.30
2022-12-01T02:33:16.765Z,8.48
2022-12-01T02:35:43.144Z,8.47
2022-12-01T02:38:09.537Z,8.71
2022-12-01T02:40:35.885Z,8.88
2022-12-01T02:43:02.273Z,8.64
2022-12-01T02:45:28.679Z,8.78
2022-12-01T02:47:55.069Z,8.83
2022-12-01T02:50:21.414Z,8.97
2022-12-01T02:52:47.747Z,9.02
2022-12-01T02:55:14.105Z,8.68
2022-12-01T02:57:40.450Z,8.64
2022-12-01T03:00:06.836Z,8.80
2022-12-01T03:02:33.224Z,8.37
2022-12-01T03:04:59.646Z,8.61
2022-12-01T03:07:26.047Z,8.50
2022-12-01T03:09:52.403Z,8.84
2022-12-01T03:12:18.737Z,9.11
2022-12-01T03:14:45.122Z,8.98
2022-12-01T03:17:11.467Z,9.05
2022-12-01T03:19:37.798Z,8.98
2022-12-01T03:22:04.177Z,9.00
2022-12-01T03:24:30.519Z,8.75
2022-12-01T03:26:56.859Z,8.91
2022-12-01T03:29:23.190Z,8.51
2022-12-01T03:31:49.523Z,8.64
2022-12-01T03:34:15.851Z,8.47
2022-12-01T03:36:42.172Z,8.89
2022-12-01T03:39:08.506Z,8.18
2022-12-01T03:41:34.847Z,8.54
2022-12-01T03:44:01.180Z,8.31
2022-12-01T03:46:27.565Z,8.48
2022-12-01T03:48:54.053Z,8.55
2022-12-01T03:51:20.428Z,8.19
2022-12-01T03:53:46.826Z,8.43
2022-12-01T03:56:13.216Z,8.30
2022-12-01T03:58:39.561Z,8.44
2022-12-01T04:01:05.894Z,8.59
2022-12-01T04:03:32.227Z,8.57
2022-12-01T04:05:58.568Z,8.57
2022-12-01T04:08:24.906Z,8.66
2022-12-01T04:10:51.279Z,8.42
2022-12-01T04:13:17.624Z,8.54
2022-12-01T04:15:44.030Z,8.20
2022-12-01T04:18:10.421Z,8.12
2022-12-01T04:20:36.789Z,8.53
2022-12-01T04:23:03.126Z,8.76
2022-12-01T04:25:29.454Z,8.63
2022-12-01T04:27:55.809Z,8.83
2022-12-01T04:30:22.130Z,8.57
2022-12-01T04:32:48.521Z,8.40
2022-12-01T04:35:14.869Z,8.34
2022-12-01T04:37:41.243Z,8.91
2022-12-01T04:40:07.616Z,8.66
2022-12-01T04:42:34.024Z,8.38
2022-12-01T04:45:00.410Z,8.33
2022-12-01T04:47:26.809Z,8.68
2022-12-01T04:49:53.214Z,8.36
2022-12-01T04:52:19.570Z,8.55
2022-12-01T04:54:45.918Z,8.38
2022-12-01T04:57:12.301Z,8.46
2022-12-01T04:59:38.659Z,8.27
2022-12-01T05:02:05.092Z,8.63
2022-12-01T05:04:31.625Z,8.81
2022-12-01T05:06:58.000Z,9.07
2022-12-01T05:09:24.343Z,9.13
2022-12-01T05:11:50.692Z,9.10
2022-12-01T05:14:17.021Z,9.42
2022-12-01T05:16:43.462Z,9.81
2022-12-01T05:19:09.878Z,9.32
2022-12-01T05:21:36.224Z,9.47
2022-12-01T05:24:02.608Z,9.45
2022-12-01T05:26:28.959Z,9.29
2022-12-01T05:28:55.337Z,9.36
2022-12-01T05:31:21.716Z,9.22
2022-12-01T05:33:48.096Z,8.95
2022-12-01T05:36:14.426Z,8.54
2022-12-01T05:38:40.788Z,8.44
2022-12-01T05:41:07.151Z,8.66
2022-12-01T05:43:33.474Z,8.72
2022-12-01T05:45:59.898Z,9.04
2022-12-01T05:48:26.365Z,8.75
2022-12-01T05:50:52.718Z,8.71
2022-12-01T05:53:19.113Z,8.80
2022-12-01T05:55:45.480Z,9.07
2022-12-01T05:58:11.863Z,8.77
2022-12-01T06:00:45.022Z,8.77
2022-12-01T06:03:12.248Z,8.54
2022-12-01T06:05:38.760Z,8.97
2022-12-01T06:08:05.143Z,8.63
2022-12-01T06:10:31.488Z,8.31
2022-12-01T06:12:57.874Z,8.51
2022-12-01T06:15:24.243Z,8.57
2022-12-01T06:17:50.586Z,8.97
2022-12-01T06:20:16.969Z,8.68
2022-12-01T06:22:43.352Z,8.93
2022-12-01T06:25:09.695Z,8.78
2022-12-01T06:27:36.038Z,8.95
2022-12-01T06:30:02.414Z,8.80
2022-12-01T06:32:28.831Z,8.73
2022-12-01T06:34:55.250Z,8.78
2022-12-01T06:37:21.636Z,8.83
2022-12-01T06:39:48.330Z,8.84
2022-12-01T06:42:14.882Z,8.57
2022-12-01T06:44:41.249Z,8.71
2022-12-01T06:47:07.615Z,9.04
2022-12-01T06:49:33.967Z,8.93
2022-12-01T06:52:01.181Z,9.15
2022-12-01T06:54:27.651Z,9.28
2022-12-01T06:56:54.010Z,8.85
2022-12-01T06:59:20.499Z,8.50
2022-12-01T07:01:47.287Z,8.70
2022-12-01T07:04:13.715Z,9.08
2022-12-01T07:06:40.106Z,8.80
2022-12-01T07:09:06.454Z,8.28
2022-12-01T07:11:32.841Z,8.62
2022-12-01T07:13:59.195Z,8.66
2022-12-01T07:16:25.600Z,8.67
2022-12-01T07:18:52.022Z,9.07
2022-12-01T07:21:18.401Z,9.02
2022-12-01T07:23:44.800Z,9.07
2022-12-01T07:26:11.155Z,9.02
2022-12-01T07:28:37.494Z,9.18
2022-12-01T07:31:03.915Z,8.86
2022-12-01T07:33:30.361Z,9.25
2022-12-01T07:35:56.706Z,9.22
2022-12-01T07:38:23.077Z,9.33
2022-12-01T07:40:49.448Z,9.51
2022-12-01T07:43:15.788Z,9.07
2022-12-01T07:45:42.217Z,9.02
2022-12-01T07:48:08.634Z,9.37
2022-12-01T07:50:35.029Z,9.07
2022-12-01T07:53:01.394Z,9.10
2022-12-01T07:55:27.779Z,9.04
2022-12-01T07:57:54.180Z,9.01
2022-12-01T08:00:20.522Z,8.51
2022-12-01T08:02:46.956Z,8.83
2022-12-01T08:05:13.373Z,9.05
2022-12-01T08:07:39.775Z,9.10
2022-12-01T08:10:06.207Z,9.04
2022-12-01T08:12:32.570Z,8.90
2022-12-01T08:14:58.999Z,9.08
2022-12-01T08:17:25.355Z,8.87
2022-12-01T08:19:51.822Z,9.02
2022-12-01T08:22:18.202Z,9.25
2022-12-01T08:24:44.539Z,9.07
2022-12-01T08:27:10.875Z,9.46
2022-12-01T08:29:37.252Z,9.31
2022-12-01T08:32:03.604Z,9.71
2022-12-01T08:34:29.990Z,9.80
2022-12-01T08:36:56.342Z,9.45
2022-12-01T08:39:22.742Z,9.81
2022-12-01T08:41:49.101Z,9.75
2022-12-01T08:44:15.482Z,9.76
2022-12-01T08:46:41.946Z,9.83
2022-12-01T08:49:08.380Z,9.77
2022-12-01T08:51:34.755Z,9.50
2022-12-01T08:54:01.107Z,9.45
2022-12-01T08:56:27.452Z,9.69
2022-12-01T08:58:53.778Z,9.46
2022-12-01T09:01:20.227Z,9.44
2022-12-01T09:03:46.651Z,9.21
2022-12-01T09:06:13.007Z,9.13
2022-12-01T09:08:39.338Z,9.26
2022-12-01T09:11:05.736Z,9.22
2022-12-01T09:13:32.094Z,9.00
2022-12-01T09:15:58.617Z,9.30
2022-12-01T09:18:25.017Z,9.21
2022-12-01T09:20:51.367Z,8.77
2022-12-01T09:23:17.706Z,9.38
2022-12-01T09:25:44.082Z,9.10
2022-12-01T09:28:10.499Z,9.93
2022-12-01T09:30:36.893Z,9.59
2022-12-01T09:33:03.300Z,10.11
2022-12-01T09:35:29.715Z,9.47
2022-12-01T09:37:56.106Z,9.55
2022-12-01T09:40:22.506Z,10.00
2022-12-01T09:42:48.852Z,10.03
2022-12-01T09:45:15.234Z,9.82
2022-12-01T09:47:41.631Z,10.31
2022-12-01T09:50:08.010Z,10.00
2022-12-01T09:52:34.398Z,9.83
2022-12-01T09:55:00.765Z,10.17
2022-12-01T09:57:27.139Z,10.25
2022-12-01T09:59:53.492Z,10.07
2022-12-01T10:02:19.969Z,10.14
2022-12-01T10:04:46.364Z,10.02
2022-12-01T10:07:12.785Z,10.27
2022-12-01T10:09:39.209Z,9.92
2022-12-01T10:12:05.566Z,9.79
2022-12-01T10:14:31.918Z,9.58
2022-12-01T10:16:58.309Z,9.58
2022-12-01T10:19:24.638Z,9.58
2022-12-01T10:21:51.013Z,9.87
2022-12-01T10:24:17.398Z,9.87
2022-12-01T10:26:43.754Z,10.15
2022-12-01T10:29:10.135Z,10.32
2022-12-01T10:31:36.601Z,10.09
2022-12-01T10:34:03.040Z,10.45
2022-12-01T10:36:29.389Z,10.65
2022-12-01T10:38:55.757Z,10.86
2022-12-01T10:41:22.137Z,10.70
2022-12-01T10:43:48.542Z,10.93
2022-12-01T10:46:14.961Z,11.16
2022-12-01T10:48:41.349Z,10.74
2022-12-01T10:51:07.695Z,10.67
2022-12-01T10:53:34.041Z,10.61
2022-12-01T10:56:00.419Z,10.91
2022-12-01T10:58:26.772Z,10.89
2022-12-01T11:01:00.946Z,10.58
2022-12-01T11:03:27.668Z,10.37
2022-12-01T11:05:55.357Z,10.48
2022-12-01T11:08:21.708Z,10.58
2022-12-01T11:10:48.101Z,10.94
2022-12-01T11:13:14.456Z,10.89
2022-12-01T11:15:40.804Z,11.47
2022-12-01T11:18:07.184Z,11.45
2022-12-01T11:20:33.659Z,11.53
2022-12-01T11:23:00.117Z,11.67
2022-12-01T11:25:26.485Z,11.16
2022-12-01T11:27:52.872Z,11.28
2022-12-01T11:30:19.316Z,10.90
2022-12-01T11:32:45.724Z,10.66
2022-12-01T11:35:12.077Z,10.63
2022-12-01T11:37:38.414Z,10.91
2022-12-01T11:40:04.756Z,10.80
2022-12-01T11:42:31.087Z,10.65
2022-12-01T11:44:57.414Z,10.88
2022-12-01T11:47:24.820Z,11.04
2022-12-01T11:49:51.714Z,11.12
2022-12-01T11:52:18.413Z,10.57
2022-12-01T11:54:44.764Z,10.90
2022-12-01T11:57:33.146Z,10.97
2022-12-01T11:59:57.521Z,11.23
2022-12-01T12:02:23.986Z,11.11
2022-12-01T12:04:50.400Z,10.89
2022-12-01T12:07:16.796Z,10.94
2022-12-01T12:09:45.219Z,11.06
2022-12-01T12:12:11.747Z,11.29
2022-12-01T12:14:38.118Z,11.31
2022-12-01T12:17:04.454Z,11.32
2022-12-01T12:19:34.229Z,11.64
2022-12-01T12:22:05.679Z,11.55
2022-12-01T12:24:32.058Z,11.42
2022-12-01T12:26:58.416Z,11.15
2022-12-01T12:29:24.790Z,11.21
2022-12-01T12:31:51.171Z,11.29
2022-12-01T12:34:17.515Z,11.20
2022-12-01T12:36:43.907Z,11.48
2022-12-01T12:39:15.150Z,11.55
2022-12-01T12:41:43.044Z,11.63
2022-12-01T12:44:09.379Z,11.37
2022-12-01T12:46:35.792Z,11.41
2022-12-01T12:51:48.574Z,11.51
2022-12-01T12:54:14.969Z,11.75
2022-12-01T12:56:41.433Z,11.55
2022-12-01T12:59:07.827Z,11.57
2022-12-01T13:01:34.427Z,11.77
2022-12-01T13:04:00.869Z,11.69
2022-12-01T13:06:27.211Z,11.67
2022-12-01T13:08:53.598Z,11.64
2022-12-01T13:11:20.072Z,12.05
2022-12-01T13:13:46.480Z,11.88
2022-12-01T13:16:12.982Z,11.75
2022-12-01T13:18:39.448Z,11.55
2022-12-01T13:21:05.818Z,11.41
2022-12-01T13:23:32.196Z,11.74
2022-12-01T13:25:58.569Z,11.65
2022-12-01T13:28:24.931Z,11.72
2022-12-01T13:30:51.333Z,11.85
2022-12-01T13:33:17.721Z,11.22
2022-12-01T13:35:44.115Z,11.36
2022-12-01T13:38:10.497Z,11.31
2022-12-01T13:40:37.028Z,11.40
2022-12-01T13:43:08.940Z,11.49
2022-12-01T13:45:37.068Z,11.26
2022-12-01T13:48:03.441Z,11.11
2022-12-01T13:50:29.825Z,11.34
2022-12-01T13:52:56.251Z,11.44
2022-12-01T13:55:22.649Z,11.44
2022-12-01T13:57:49.041Z,11.72
2022-12-01T14:00:15.468Z,11.30
2022-12-01T14:02:42.006Z,11.41
2022-12-01T14:05:08.465Z,11.67
2022-12-01T14:07:34.940Z,11.63
2022-12-01T14:10:01.363Z,11.84
2022-12-01T14:12:27.772Z,11.80
2022-12-01T14:14:54.375Z,11.83
2022-12-01T14:17:21.031Z,12.01
2022-12-01T14:19:47.423Z,12.32
2022-12-01T14:22:13.816Z,12.14
2022-12-01T14:24:40.205Z,12.22
2022-12-01T14:27:06.550Z,12.12
2022-12-01T14:29:32.933Z,11.98
2022-12-01T14:31:59.279Z,12.12
2022-12-01T14:34:25.616Z,12.08
2022-12-01T14:36:52.005Z,12.18
2022-12-01T14:39:18.393Z,11.70
2022-12-01T14:41:44.752Z,11.88
2022-12-01T14:44:11.257Z,11.91
2022-12-01T14:46:37.723Z,12.09
2022-12-01T14:49:04.092Z,11.82
2022-12-01T14:51:30.468Z,12.08
2022-12-01T14:53:56.848Z,11.63
2022-12-01T14:56:23.200Z,11.76
2022-12-01T14:58:49.597Z,11.49
2022-12-01T15:01:16.040Z,11.81
2022-12-01T15:03:42.441Z,11.78
2022-12-01T15:06:08.847Z,11.61
2022-12-01T15:08:53.280Z,11.68
2022-12-01T15:11:21.609Z,11.54
2022-12-01T15:13:47.930Z,11.44
2022-12-01T15:16:14.346Z,11.20
2022-12-01T15:18:40.711Z,11.32
2022-12-01T15:21:07.053Z,11.41
2022-12-01T15:23:33.397Z,11.23
2022-12-01T15:25:59.765Z,11.39
2022-12-01T15:28:26.238Z,11.16
2022-12-01T15:30:52.611Z,11.23
2022-12-01T15:33:24.013Z,10.59
2022-12-01T15:35:53.266Z,10.60
2022-12-01T15:38:19.637Z,10.59
2022-12-01T15:43:32.305Z,11.06
2022-12-01T15:45:58.735Z,10.96
2022-12-01T15:48:25.142Z,11.03
2022-12-01T15:50:51.524Z,11.22
2022-12-01T15:53:17.924Z,10.99
2022-12-01T15:55:44.322Z,10.99
2022-12-01T15:58:10.709Z,11.06
2022-12-01T16:00:37.054Z,11.12
2022-12-01T16:03:03.402Z,11.20
2022-12-01T16:05:29.777Z,11.12
2022-12-01T16:08:13.496Z,11.14
2022-12-01T16:10:40.397Z,11.04
2022-12-01T16:13:06.787Z,11.22
2022-12-01T16:15:33.185Z,11.00
2022-12-01T16:17:59.594Z,11.30
2022-12-01T16:20:25.985Z,11.20
2022-12-01T16:22:52.373Z,11.18
2022-12-01T16:25:18.776Z,10.86
2022-12-01T16:27:45.159Z,10.62
2022-12-01T16:30:11.501Z,10.59
2022-12-01T16:32:37.906Z,10.72
2022-12-01T16:35:04.281Z,10.39
2022-12-01T16:37:30.649Z,10.63
2022-12-01T16:39:57.050Z,9.83
2022-12-01T16:42:23.404Z,10.21
2022-12-01T16:44:50.200Z,10.27
2022-12-01T16:47:16.800Z,10.12
2022-12-01T16:49:43.155Z,10.18
2022-12-01T16:52:36.668Z,10.33
2022-12-01T16:54:55.869Z,10.41
2022-12-01T16:57:22.261Z,10.11
2022-12-01T16:59:48.616Z,10.33
2022-12-01T17:02:14.980Z,9.99
2022-12-01T17:04:41.389Z,9.98
2022-12-01T17:07:07.840Z,10.00
2022-12-01T17:09:34.317Z,9.87
2022-12-01T17:12:00.728Z,9.89
2022-12-01T17:14:27.062Z,9.80
2022-12-01T17:16:53.409Z,9.70
2022-12-01T17:19:22.504Z,9.74
2022-12-01T17:21:48.857Z,9.87
2022-12-01T17:24:18.982Z,9.48
2022-12-01T17:26:45.821Z,10.05
2022-12-01T17:29:12.232Z,9.45
2022-12-01T17:31:38.669Z,9.73
2022-12-01T17:34:05.106Z,9.77
2022-12-01T17:36:31.496Z,10.02
2022-12-01T17:38:57.886Z,9.81
2022-12-01T17:41:24.238Z,9.71
2022-12-01T17:43:50.585Z,9.41
2022-12-01T17:46:16.956Z,9.55
2022-12-01T17:48:43.377Z,9.43
2022-12-01T17:51:09.724Z,9.62
2022-12-01T17:53:36.056Z,9.63
2022-12-01T17:56:02.449Z,10.01
2022-12-01T17:58:28.807Z,10.13
2022-12-01T18:00:55.190Z,9.60
2022-12-01T18:03:21.624Z,9.99
2022-12-01T18:05:48.001Z,9.89
2022-12-01T18:08:14.376Z,9.86
2022-12-01T18:10:40.777Z,9.74
2022-12-01T18:13:07.122Z,9.77
2022-12-01T18:15:34.842Z,9.93
2022-12-01T18:18:01.313Z,9.81
2022-12-01T18:20:27.661Z,9.87
2022-12-01T18:22:54.017Z,9.33
2022-12-01T18:25:20.351Z,9.40
2022-12-01T18:27:46.764Z,8.97
2022-12-01T18:30:13.152Z,8.95
2022-12-01T18:32:39.546Z,9.04
2022-12-01T18:35:05.955Z,9.12
2022-12-01T18:37:32.289Z,9.58
2022-12-01T18:39:58.710Z,8.98
2022-12-01T18:42:25.054Z,9.19
2022-12-01T18:44:51.721Z,9.37
2022-12-01T18:47:18.421Z,9.61
2022-12-01T18:49:44.784Z,9.58
2022-12-01T18:52:11.176Z,9.52
2022-12-01T18:54:37.640Z,9.29
2022-12-01T18:57:04.039Z,9.36
2022-12-01T18:59:30.434Z,9.60
2022-12-01T19:01:56.850Z,9.43
2022-12-01T19:04:23.263Z,9.20
2022-12-01T19:06:49.659Z,9.42
2022-12-01T19:09:16.062Z,9.19
2022-12-01T19:11:42.395Z,9.10
2022-12-01T19:14:08.768Z,9.41
2022-12-01T19:16:35.237Z,9.59
2022-12-01T19:19:01.692Z,9.65
2022-12-01T19:21:28.088Z,9.47
2022-12-01T19:23:54.503Z,9.79
2022-12-01T19:26:20.876Z,9.64
2022-12-01T19:28:47.232Z,9.33
2022-12-01T19:31:13.750Z,9.55
2022-12-01T19:33:40.185Z,9.73
2022-12-01T19:36:06.573Z,9.62
2022-12-01T19:38:32.935Z,9.36
2022-12-01T19:40:59.268Z,9.31
2022-12-01T19:43:25.662Z,9.62
2022-12-01T19:45:52.047Z,9.71
2022-12-01T19:48:18.501Z,9.75
2022-12-01T19:50:44.891Z,9.80
2022-12-01T19:53:11.284Z,9.51
2022-12-01T19:55:37.637Z,9.43
2022-12-01T19:58:04.003Z,9.16
2022-12-01T20:00:30.347Z,9.60
2022-12-01T20:02:56.722Z,9.48
2022-12-01T20:05:23.103Z,8.83
2022-12-01T20:07:49.562Z,8.89
2022-12-01T20:10:16.014Z,8.87
2022-12-01T20:12:42.397Z,9.08
2022-12-01T20:15:08.781Z,8.98
2022-12-01T20:17:35.123Z,9.05
2022-12-01T20:20:01.506Z,8.90
2022-12-01T20:22:27.897Z,9.28
2022-12-01T20:24:54.310Z,9.45
2022-12-01T20:27:20.717Z,9.07
2022-12-01T20:29:47.081Z,8.99
2022-12-01T20:32:13.471Z,8.88
2022-12-01T20:34:39.883Z,9.31
2022-12-01T20:37:06.257Z,8.94
2022-12-01T20:39:32.648Z,9.26
2022-12-01T20:41:58.983Z,9.41
2022-12-01T20:44:25.415Z,8.88
2022-12-01T20:46:51.778Z,9.17
2022-12-01T20:49:18.132Z,9.23
2022-12-01T20:51:44.520Z,9.23
2022-12-01T20:54:40.769Z,9.28
2022-12-01T20:56:57.241Z,9.54
2022-12-01T20:59:23.597Z,9.45
2022-12-01T21:01:50.070Z,9.40
2022-12-01T21:04:16.480Z,9.58
2022-12-01T21:06:42.855Z,9.45
2022-12-01T21:09:09.251Z,9.47
2022-12-01T21:11:35.645Z,9.47
2022-12-01T21:14:02.042Z,9.32
2022-12-01T21:16:28.536Z,8.91
2022-12-01T21:18:54.919Z,8.88
2022-12-01T21:21:21.305Z,8.74
2022-12-01T21:23:47.714Z,8.86
2022-12-01T21:26:14.147Z,8.74
2022-12-01T21:28:40.496Z,8.93
2022-12-01T21:31:06.890Z,8.84
2022-12-01T21:33:33.364Z,8.62
2022-12-01T21:35:59.870Z,8.66
2022-12-01T21:38:26.311Z,8.66
2022-12-01T21:40:52.672Z,8.49
2022-12-01T21:43:19.126Z,8.48
2022-12-01T21:45:45.522Z,8.51
2022-12-01T21:48:11.937Z,8.61
2022-12-01T21:50:38.288Z,8.87
2022-12-01T21:53:04.698Z,8.64
2022-12-01T21:55:31.082Z,8.93
2022-12-01T21:57:57.436Z,8.87
2022-12-01T22:00:23.817Z,8.93
2022-12-01T22:02:50.310Z,9.03
2022-12-01T22:05:16.836Z,9.10
2022-12-01T22:07:43.296Z,9.09
2022-12-01T22:10:09.755Z,9.07
2022-12-01T22:12:36.151Z,9.21
2022-12-01T22:15:02.591Z,8.99
2022-12-01T22:17:28.990Z,8.82
2022-12-01T22:19:55.551Z,8.97
2022-12-01T22:22:22.041Z,9.29
2022-12-01T22:24:48.597Z,9.36
2022-12-01T22:27:15.206Z,9.25
2022-12-01T22:29:41.602Z,9.45
2022-12-01T22:32:07.994Z,9.37
2022-12-01T22:34:34.400Z,9.43
2022-12-01T22:37:00.779Z,9.24
2022-12-01T22:39:27.156Z,9.20
2022-12-01T22:41:53.494Z,9.58
2022-12-01T22:44:19.871Z,9.31
2022-12-01T22:46:46.280Z,9.33
2022-12-01T22:49:12.683Z,9.15
2022-12-01T22:51:39.036Z,9.28
2022-12-01T22:54:05.429Z,9.22
2022-12-01T22:56:31.776Z,9.23
2022-12-01T22:58:58.136Z,9.20
2022-12-01T23:01:24.517Z,9.67
2022-12-01T23:03:50.900Z,9.47
2022-12-01T23:06:17.228Z,9.27
2022-12-01T23:08:43.562Z,9.44
2022-12-01T23:11:09.973Z,9.26
2022-12-01T23:13:36.374Z,8.96
2022-12-01T23:16:02.904Z,9.30
2022-12-01T23:18:29.289Z,9.25
2022-12-01T23:20:55.630Z,9.12
2022-12-01T23:23:22.026Z,9.26
2022-12-01T23:25:48.369Z,9.23
2022-12-01T23:28:14.745Z,9.32
2022-12-01T23:30:41.136Z,9.37
2022-12-01T23:33:07.521Z,9.19
2022-12-01T23:35:33.857Z,9.10
2022-12-01T23:38:00.205Z,9.37
2022-12-01T23:40:26.561Z,9.47
2022-12-01T23:42:52.907Z,9.25
2022-12-01T23:45:19.237Z,9.22
2022-12-01T23:47:45.590Z,9.31
2022-12-01T23:50:11.976Z,9.24
2022-12-01T23:52:38.320Z,9.03
2022-12-01T23:55:04.664Z,9.10
2022-12-01T23:57:31.032Z,8.67
2022-12-01T23:59:57.410Z,8.52
